createdAt,value
2018-09-16T00:01:35.227Z,52.71
2018-09-16T00:04:01.173Z,52.75
2018-09-16T00:06:27.143Z,52.82
2018-09-16T00:08:54.157Z,53.35
2018-09-16T00:11:20.095Z,52.83
2018-09-16T00:13:46.059Z,52.28
2018-09-16T00:16:12.008Z,52.65
2018-09-16T00:18:37.959Z,53.14
2018-09-16T00:21:03.911Z,53.17
2018-09-16T00:23:29.860Z,52.55
2018-09-16T00:25:55.828Z,52.74
2018-09-16T00:28:21.871Z,53.18
2018-09-16T00:30:47.827Z,53.37
2018-09-16T00:33:13.827Z,52.99
2018-09-16T00:35:39.771Z,53.34
2018-09-16T00:38:05.742Z,52.47
2018-09-16T00:40:31.684Z,53.24
2018-09-16T00:42:57.644Z,52.64
2018-09-16T00:45:23.599Z,53.28
2018-09-16T00:47:49.562Z,53.11
2018-09-16T00:50:15.504Z,52.56
2018-09-16T00:52:41.451Z,52.84
2018-09-16T00:55:07.600Z,52.59
2018-09-16T00:57:33.620Z,52.83
2018-09-16T00:59:59.696Z,52.53
2018-09-16T01:02:25.634Z,52.18
2018-09-16T01:04:51.699Z,52.31
2018-09-16T01:07:17.642Z,52.62
2018-09-16T01:09:43.594Z,51.69
2018-09-16T01:12:09.592Z,52.91
2018-09-16T01:14:35.541Z,52.36
2018-09-16T01:17:01.484Z,52.69
2018-09-16T01:19:27.496Z,52.68
2018-09-16T01:21:53.536Z,52.98
2018-09-16T01:24:19.488Z,52.85
2018-09-16T01:26:45.473Z,52.28
2018-09-16T01:29:11.446Z,53.00
2018-09-16T01:31:37.500Z,52.47
2018-09-16T01:34:03.478Z,53.41
2018-09-16T01:36:29.444Z,52.57
2018-09-16T01:38:55.416Z,52.79
2018-09-16T01:41:21.358Z,52.65
2018-09-16T01:43:47.323Z,52.05
2018-09-16T01:46:13.361Z,52.16
2018-09-16T01:48:39.320Z,53.26
2018-09-16T01:51:05.272Z,52.06
2018-09-16T01:53:31.244Z,52.03
2018-09-16T01:55:57.217Z,52.02
2018-09-16T01:58:23.171Z,52.34
2018-09-16T02:00:49.135Z,52.63
2018-09-16T02:03:15.089Z,52.35
2018-09-16T02:05:41.085Z,52.80
2018-09-16T02:08:08.043Z,52.08
2018-09-16T02:10:33.995Z,52.68
2018-09-16T02:12:59.944Z,52.67
2018-09-16T02:15:25.906Z,52.79
2018-09-16T02:17:51.859Z,51.97
2018-09-16T02:20:17.811Z,51.66
2018-09-16T02:22:43.751Z,52.39
2018-09-16T02:25:09.829Z,52.67
2018-09-16T02:27:35.790Z,52.30
2018-09-16T02:30:01.741Z,52.45
2018-09-16T02:32:27.684Z,52.56
2018-09-16T02:34:53.645Z,51.64
2018-09-16T02:37:19.587Z,51.65
2018-09-16T02:39:45.547Z,51.86
2018-09-16T02:42:11.576Z,52.38
2018-09-16T02:44:37.532Z,52.40
2018-09-16T02:47:03.492Z,52.24
2018-09-16T02:49:29.448Z,51.73
2018-09-16T02:51:55.413Z,51.92
2018-09-16T02:54:21.387Z,52.15
2018-09-16T02:56:47.464Z,51.69
2018-09-16T02:59:13.409Z,51.45
2018-09-16T03:01:39.381Z,51.72
2018-09-16T03:04:05.336Z,52.33
2018-09-16T03:06:31.285Z,51.86
2018-09-16T03:08:57.249Z,51.52
2018-09-16T03:11:23.286Z,51.33
2018-09-16T03:13:49.188Z,51.67
2018-09-16T03:16:15.142Z,52.34
2018-09-16T03:18:41.252Z,51.66
2018-09-16T03:21:07.151Z,51.42
2018-09-16T03:23:33.100Z,51.96
2018-09-16T03:25:59.103Z,51.69
2018-09-16T03:28:25.052Z,51.57
2018-09-16T03:30:51.025Z,51.48
2018-09-16T03:33:16.981Z,52.18
2018-09-16T03:35:42.919Z,52.26
2018-09-16T03:38:08.963Z,51.44
2018-09-16T03:40:34.996Z,51.18
2018-09-16T03:43:01.029Z,51.64
2018-09-16T03:45:26.980Z,51.85
2018-09-16T03:47:52.940Z,51.55
2018-09-16T03:50:18.882Z,52.28
2018-09-16T03:52:44.836Z,52.14
2018-09-16T03:55:10.800Z,51.62
2018-09-16T03:57:36.745Z,51.43
2018-09-16T04:00:02.688Z,51.94
2018-09-16T04:02:28.718Z,51.52
2018-09-16T04:04:54.696Z,52.07
2018-09-16T04:07:20.640Z,51.96
2018-09-16T04:09:46.590Z,51.47
2018-09-16T04:12:12.539Z,52.06
2018-09-16T04:14:38.591Z,51.18
2018-09-16T04:17:04.551Z,52.05
2018-09-16T04:19:30.525Z,52.01
2018-09-16T04:21:56.484Z,51.45
2018-09-16T04:24:22.427Z,51.41
2018-09-16T04:26:48.410Z,51.85
2018-09-16T04:29:14.359Z,52.09
2018-09-16T04:31:40.310Z,51.34
2018-09-16T04:34:06.257Z,51.35
2018-09-16T04:36:32.220Z,51.35
2018-09-16T04:38:58.167Z,51.59
2018-09-16T04:41:24.111Z,51.36
2018-09-16T04:43:50.067Z,51.18
2018-09-16T04:46:16.023Z,51.69
2018-09-16T04:48:41.966Z,51.01
2018-09-16T04:51:08.092Z,51.23
2018-09-16T04:53:34.150Z,51.13
2018-09-16T04:56:00.102Z,50.97
2018-09-16T04:58:26.059Z,50.92
2018-09-16T05:00:52.024Z,52.14
2018-09-16T05:03:18.001Z,51.28
2018-09-16T05:05:43.951Z,51.03
2018-09-16T05:08:09.941Z,50.56
2018-09-16T05:10:35.960Z,50.88
2018-09-16T05:13:01.864Z,50.72
2018-09-16T05:15:27.813Z,51.85
2018-09-16T05:17:53.779Z,51.73
2018-09-16T05:20:19.728Z,51.33
2018-09-16T05:22:45.703Z,51.37
2018-09-16T05:25:11.695Z,51.48
2018-09-16T05:27:37.647Z,51.74
2018-09-16T05:30:03.610Z,51.11
2018-09-16T05:32:29.548Z,51.40
2018-09-16T05:34:55.500Z,51.71
2018-09-16T05:37:21.445Z,50.99
2018-09-16T05:39:47.387Z,52.00
2018-09-16T05:42:13.331Z,51.27
2018-09-16T05:44:39.267Z,51.48
2018-09-16T05:47:05.211Z,50.74
2018-09-16T05:49:31.160Z,51.36
2018-09-16T05:51:57.187Z,51.65
2018-09-16T05:54:23.151Z,50.67
2018-09-16T05:56:49.090Z,51.37
2018-09-16T05:59:15.108Z,51.34
2018-09-16T06:01:41.000Z,51.67
2018-09-16T06:04:06.966Z,51.73
2018-09-16T06:06:32.920Z,51.03
2018-09-16T06:08:58.976Z,51.55
2018-09-16T06:11:24.939Z,51.37
2018-09-16T06:13:50.884Z,50.85
2018-09-16T06:16:16.844Z,50.68
2018-09-16T06:18:42.790Z,51.31
2018-09-16T06:21:08.789Z,51.13
2018-09-16T06:23:34.738Z,51.13
2018-09-16T06:26:00.703Z,51.62
2018-09-16T06:28:26.727Z,50.88
2018-09-16T06:30:52.691Z,51.12
2018-09-16T06:33:18.642Z,50.93
2018-09-16T06:35:44.589Z,51.07
2018-09-16T06:38:10.531Z,51.31
2018-09-16T06:40:36.545Z,51.71
2018-09-16T06:43:02.461Z,51.24
2018-09-16T06:45:28.408Z,51.56
2018-09-16T06:47:54.350Z,50.81
2018-09-16T06:50:20.370Z,51.40
2018-09-16T06:52:46.341Z,51.74
2018-09-16T06:55:12.295Z,50.79
2018-09-16T06:57:38.243Z,51.70
2018-09-16T07:00:04.190Z,51.81
2018-09-16T07:02:30.152Z,51.26
2018-09-16T07:04:56.091Z,51.41
2018-09-16T07:07:22.066Z,51.58
2018-09-16T07:09:48.027Z,50.87
2018-09-16T07:12:13.969Z,51.03
2018-09-16T07:14:39.927Z,50.96
2018-09-16T07:17:05.908Z,51.67
2018-09-16T07:19:31.853Z,51.40
2018-09-16T07:21:57.836Z,51.67
2018-09-16T07:24:23.891Z,51.78
2018-09-16T07:26:49.877Z,51.26
2018-09-16T07:29:15.786Z,50.64
2018-09-16T07:31:41.771Z,51.78
2018-09-16T07:34:07.799Z,51.13
2018-09-16T07:36:33.778Z,51.32
2018-09-16T07:38:59.966Z,50.72
2018-09-16T07:41:26.051Z,51.35
2018-09-16T07:43:52.067Z,51.67
2018-09-16T07:46:18.098Z,51.31
2018-09-16T07:48:45.054Z,51.32
2018-09-16T07:51:11.124Z,51.46
2018-09-16T07:53:37.069Z,51.01
2018-09-16T07:56:03.008Z,51.18
2018-09-16T07:58:29.001Z,51.13
2018-09-16T08:00:54.923Z,51.08
2018-09-16T08:03:20.914Z,51.48
2018-09-16T08:05:46.876Z,51.47
2018-09-16T08:08:12.884Z,50.72
2018-09-16T08:10:38.832Z,50.97
2018-09-16T08:13:04.800Z,51.16
2018-09-16T08:15:30.853Z,52.19
2018-09-16T08:17:56.812Z,50.86
2018-09-16T08:20:23.048Z,50.95
2018-09-16T08:22:48.996Z,50.92
2018-09-16T08:25:14.972Z,51.15
2018-09-16T08:27:41.007Z,50.86
2018-09-16T08:30:06.973Z,52.51
2018-09-16T08:32:32.930Z,51.59
2018-09-16T08:34:58.873Z,51.23
2018-09-16T08:37:24.911Z,51.42
2018-09-16T08:39:50.940Z,51.50
2018-09-16T08:42:16.876Z,52.04
2018-09-16T08:44:43.020Z,51.42
2018-09-16T08:47:08.973Z,51.33
2018-09-16T08:49:34.942Z,51.65
2018-09-16T08:52:00.895Z,51.37
2018-09-16T08:54:26.963Z,51.71
2018-09-16T08:56:52.923Z,51.59
2018-09-16T08:59:18.875Z,52.35
2018-09-16T09:01:44.832Z,51.51
2018-09-16T09:04:10.832Z,52.79
2018-09-16T09:06:36.729Z,52.08
2018-09-16T09:09:02.713Z,52.47
2018-09-16T09:11:28.671Z,52.83
2018-09-16T09:13:54.643Z,52.87
2018-09-16T09:16:20.668Z,52.20
2018-09-16T09:18:46.642Z,53.09
2018-09-16T09:21:12.600Z,52.78
2018-09-16T09:23:38.550Z,53.41
2018-09-16T09:26:04.506Z,53.44
2018-09-16T09:28:30.456Z,52.86
2018-09-16T09:30:56.445Z,52.68
2018-09-16T09:33:22.451Z,52.65
2018-09-16T09:35:48.413Z,53.10
2018-09-16T09:38:14.371Z,52.13
2018-09-16T09:40:40.329Z,52.84
2018-09-16T09:43:06.369Z,52.44
2018-09-16T09:45:32.327Z,52.69
2018-09-16T09:47:58.300Z,52.58
2018-09-16T09:50:24.366Z,53.38
2018-09-16T09:52:50.311Z,53.29
2018-09-16T09:55:16.341Z,53.15
2018-09-16T09:57:42.307Z,52.26
2018-09-16T10:00:08.369Z,51.92
2018-09-16T10:02:34.320Z,52.11
2018-09-16T10:05:00.326Z,52.46
2018-09-16T10:07:26.229Z,53.21
2018-09-16T10:09:52.488Z,52.78
2018-09-16T10:12:18.463Z,52.53
2018-09-16T10:14:44.413Z,52.74
2018-09-16T10:17:10.373Z,52.43
2018-09-16T10:19:36.351Z,52.83
2018-09-16T10:22:02.346Z,53.08
2018-09-16T10:24:28.346Z,52.59
2018-09-16T10:26:54.253Z,52.86
2018-09-16T10:29:20.268Z,52.16
2018-09-16T10:31:46.223Z,52.39
2018-09-16T10:34:12.171Z,52.15
2018-09-16T10:36:38.208Z,52.83
2018-09-16T10:39:04.148Z,52.00
2018-09-16T10:41:30.107Z,52.08
2018-09-16T10:43:56.071Z,53.07
2018-09-16T10:46:22.050Z,53.63
2018-09-16T10:48:48.004Z,52.02
2018-09-16T10:51:13.987Z,52.68
2018-09-16T10:53:39.951Z,53.40
2018-09-16T10:56:06.012Z,53.37
2018-09-16T10:58:31.977Z,52.96
2018-09-16T11:00:57.923Z,52.67
2018-09-16T11:03:23.888Z,52.87
2018-09-16T11:05:49.841Z,52.70
2018-09-16T11:08:15.844Z,51.96
2018-09-16T11:10:41.775Z,52.75
2018-09-16T11:13:07.732Z,52.36
2018-09-16T11:15:33.696Z,52.24
2018-09-16T11:17:59.664Z,52.52
2018-09-16T11:20:25.691Z,52.27
2018-09-16T11:22:51.671Z,52.19
2018-09-16T11:25:17.637Z,52.77
2018-09-16T11:27:44.598Z,52.38
2018-09-16T11:30:10.636Z,52.05
2018-09-16T11:32:36.516Z,52.12
2018-09-16T11:35:02.479Z,51.89
2018-09-16T11:37:28.423Z,52.80
2018-09-16T11:39:54.378Z,52.77
2018-09-16T11:42:20.330Z,52.23
2018-09-16T11:44:46.300Z,53.10
2018-09-16T11:47:12.259Z,52.24
2018-09-16T11:49:38.284Z,51.88
2018-09-16T11:52:04.326Z,52.17
2018-09-16T11:54:30.273Z,53.03
2018-09-16T11:56:56.225Z,51.71
2018-09-16T11:59:22.191Z,53.01
2018-09-16T12:01:48.146Z,52.35
2018-09-16T12:04:14.123Z,52.63
2018-09-16T12:06:40.079Z,53.06
2018-09-16T12:09:06.068Z,52.21
2018-09-16T12:11:32.096Z,51.30
2018-09-16T12:13:58.176Z,52.00
2018-09-16T12:16:24.178Z,52.40
2018-09-16T12:18:50.122Z,53.17
2018-09-16T12:21:16.294Z,52.29
2018-09-16T12:23:42.236Z,52.66
2018-09-16T12:26:08.186Z,52.74
2018-09-16T12:28:34.207Z,52.32
2018-09-16T12:31:00.276Z,51.81
2018-09-16T12:33:26.217Z,52.37
2018-09-16T12:35:52.188Z,52.11
2018-09-16T12:38:18.320Z,52.21
2018-09-16T12:40:44.273Z,52.72
2018-09-16T12:43:10.237Z,53.68
2018-09-16T12:45:36.217Z,53.48
2018-09-16T12:48:02.241Z,53.25
2018-09-16T12:50:28.212Z,53.80
2018-09-16T12:52:54.282Z,54.17
2018-09-16T12:55:20.361Z,53.29
2018-09-16T12:57:46.343Z,53.15
2018-09-16T13:00:12.294Z,53.64
2018-09-16T13:02:38.348Z,53.26
2018-09-16T13:05:04.299Z,53.46
2018-09-16T13:07:30.349Z,52.23
2018-09-16T13:09:56.372Z,52.39
2018-09-16T13:12:22.325Z,53.51
2018-09-16T13:14:48.333Z,53.39
2018-09-16T13:17:14.286Z,53.85
2018-09-16T13:19:40.293Z,53.79
2018-09-16T13:22:06.256Z,54.18
2018-09-16T13:24:32.198Z,54.31
2018-09-16T13:26:58.168Z,54.20
2018-09-16T13:29:24.116Z,54.18
2018-09-16T13:31:50.091Z,53.31
2018-09-16T13:34:16.057Z,52.97
2018-09-16T13:36:42.028Z,53.46
2018-09-16T13:39:07.986Z,53.21
2018-09-16T13:41:33.929Z,53.95
2018-09-16T13:43:59.970Z,53.98
2018-09-16T13:46:25.939Z,53.42
2018-09-16T13:48:52.154Z,53.72
2018-09-16T13:51:18.208Z,53.75
2018-09-16T13:53:44.267Z,53.92
2018-09-16T13:56:10.144Z,53.91
2018-09-16T13:58:36.110Z,53.54
2018-09-16T14:01:02.084Z,53.69
2018-09-16T14:03:28.046Z,53.81
2018-09-16T14:05:54.004Z,53.99
2018-09-16T14:08:19.976Z,53.97
2018-09-16T14:10:46.000Z,53.44
2018-09-16T14:13:12.027Z,53.52
2018-09-16T14:15:38.010Z,54.01
2018-09-16T14:18:03.961Z,53.35
2018-09-16T14:20:29.913Z,52.88
2018-09-16T14:22:56.084Z,53.53
2018-09-16T14:25:22.032Z,53.71
2018-09-16T14:27:47.983Z,54.66
2018-09-16T14:30:13.940Z,55.11
2018-09-16T14:32:39.908Z,54.68
2018-09-16T14:35:05.845Z,54.41
2018-09-16T14:37:31.864Z,54.22
2018-09-16T14:39:57.827Z,54.27
2018-09-16T14:42:23.809Z,53.68
2018-09-16T14:44:49.769Z,53.86
2018-09-16T14:47:15.730Z,53.56
2018-09-16T14:49:41.684Z,54.44
2018-09-16T14:52:07.724Z,54.20
2018-09-16T14:54:33.665Z,53.60
2018-09-16T14:56:59.718Z,53.91
2018-09-16T14:59:25.680Z,53.40
2018-09-16T15:01:51.627Z,53.68
2018-09-16T15:04:17.588Z,53.98
2018-09-16T15:06:43.584Z,53.64
2018-09-16T15:09:09.548Z,53.39
2018-09-16T15:11:35.495Z,53.26
2018-09-16T15:14:01.506Z,53.89
2018-09-16T15:16:27.457Z,55.11
2018-09-16T15:18:53.435Z,54.94
2018-09-16T15:21:19.434Z,54.75
2018-09-16T15:23:45.428Z,53.79
2018-09-16T15:26:11.468Z,54.04
2018-09-16T15:28:37.490Z,54.80
2018-09-16T15:31:03.534Z,55.26
2018-09-16T15:33:29.500Z,55.52
2018-09-16T15:35:55.445Z,55.62
2018-09-16T15:38:21.399Z,55.42
2018-09-16T15:40:47.352Z,55.42
2018-09-16T15:43:13.304Z,54.34
2018-09-16T15:45:39.269Z,55.19
2018-09-16T15:48:05.229Z,55.10
2018-09-16T15:50:31.184Z,54.99
2018-09-16T15:52:57.131Z,54.88
2018-09-16T15:55:23.212Z,55.45
2018-09-16T15:57:49.132Z,54.82
2018-09-16T16:00:15.044Z,55.44
2018-09-16T16:02:41.089Z,55.28
2018-09-16T16:05:07.041Z,55.58
2018-09-16T16:07:33.039Z,55.63
2018-09-16T16:09:58.997Z,55.41
2018-09-16T16:12:24.961Z,55.48
2018-09-16T16:14:51.040Z,54.53
2018-09-16T16:17:17.016Z,54.65
2018-09-16T16:19:42.967Z,54.54
2018-09-16T16:22:08.931Z,55.23
2018-09-16T16:24:34.896Z,55.55
2018-09-16T16:27:00.910Z,54.88
2018-09-16T16:29:26.876Z,55.59
2018-09-16T16:31:52.895Z,55.84
2018-09-16T16:34:18.924Z,55.28
2018-09-16T16:36:44.819Z,54.81
2018-09-16T16:39:10.795Z,54.65
2018-09-16T16:41:36.760Z,55.24
2018-09-16T16:44:02.744Z,55.58
2018-09-16T16:46:28.684Z,54.95
2018-09-16T16:48:54.660Z,54.97
2018-09-16T16:51:20.584Z,55.31
2018-09-16T16:53:46.579Z,55.17
2018-09-16T16:56:12.551Z,54.21
2018-09-16T16:58:38.528Z,54.47
2018-09-16T17:01:04.507Z,55.20
2018-09-16T17:03:30.500Z,55.11
2018-09-16T17:05:56.451Z,55.05
2018-09-16T17:08:22.423Z,55.40
2018-09-16T17:10:48.376Z,55.54
2018-09-16T17:13:14.329Z,55.35
2018-09-16T17:15:40.295Z,55.88
2018-09-16T17:18:06.300Z,55.41
2018-09-16T17:20:32.269Z,55.57
2018-09-16T17:22:58.222Z,55.56
2018-09-16T17:25:24.203Z,54.85
2018-09-16T17:27:50.267Z,55.54
2018-09-16T17:30:16.247Z,54.79
2018-09-16T17:32:42.234Z,55.08
2018-09-16T17:35:08.297Z,54.50
2018-09-16T17:37:34.425Z,54.87
2018-09-16T17:40:00.405Z,55.55
2018-09-16T17:42:26.370Z,55.16
2018-09-16T17:44:52.313Z,54.48
2018-09-16T17:47:18.277Z,55.02
2018-09-16T17:49:44.226Z,54.73
2018-09-16T17:52:10.186Z,54.70
2018-09-16T17:54:36.170Z,54.74
2018-09-16T17:57:02.116Z,55.05
2018-09-16T17:59:28.078Z,55.14
2018-09-16T18:01:54.044Z,55.14
2018-09-16T18:04:20.075Z,54.80
2018-09-16T18:06:46.054Z,54.26
2018-09-16T18:09:12.032Z,54.62
2018-09-16T18:11:37.995Z,54.78
2018-09-16T18:14:03.980Z,54.15
2018-09-16T18:16:29.986Z,53.86
2018-09-16T18:18:55.888Z,54.54
2018-09-16T18:21:21.999Z,54.63
2018-09-16T18:23:48.023Z,54.22
2018-09-16T18:26:13.999Z,54.47
2018-09-16T18:28:39.965Z,54.06
2018-09-16T18:31:06.062Z,54.13
2018-09-16T18:33:32.011Z,54.03
2018-09-16T18:35:58.010Z,54.52
2018-09-16T18:38:23.953Z,54.96
2018-09-16T18:40:49.914Z,53.84
2018-09-16T18:43:15.878Z,54.43
2018-09-16T18:45:41.800Z,54.00
2018-09-16T18:48:07.752Z,54.35
2018-09-16T18:50:33.773Z,54.30
2018-09-16T18:52:59.720Z,54.13
2018-09-16T18:55:25.667Z,54.33
2018-09-16T18:57:51.708Z,54.09
2018-09-16T19:00:17.652Z,53.30
2018-09-16T19:02:43.649Z,53.55
2018-09-16T19:05:09.687Z,53.62
2018-09-16T19:07:35.664Z,54.01
2018-09-16T19:10:01.639Z,53.62
2018-09-16T19:12:27.594Z,53.26
2018-09-16T19:14:53.541Z,53.39
2018-09-16T19:17:19.492Z,53.93
2018-09-16T19:19:45.543Z,53.32
2018-09-16T19:22:11.580Z,53.87
2018-09-16T19:24:37.617Z,53.77
2018-09-16T19:27:03.570Z,53.55
2018-09-16T19:29:29.515Z,52.79
2018-09-16T19:31:55.457Z,53.63
2018-09-16T19:34:21.403Z,52.63
2018-09-16T19:36:47.444Z,52.63
2018-09-16T19:39:13.392Z,53.74
2018-09-16T19:41:39.355Z,52.97
2018-09-16T19:44:05.300Z,53.72
2018-09-16T19:46:31.296Z,54.04
2018-09-16T19:48:57.261Z,53.59
2018-09-16T19:51:23.317Z,52.76
2018-09-16T19:53:49.284Z,53.48
2018-09-16T19:56:15.253Z,53.06
2018-09-16T19:58:41.306Z,52.87
2018-09-16T20:01:07.288Z,53.29
2018-09-16T20:03:33.244Z,53.03
2018-09-16T20:05:59.296Z,52.78
2018-09-16T20:08:25.326Z,53.17
2018-09-16T20:10:51.283Z,52.94
2018-09-16T20:13:17.235Z,52.94
2018-09-16T20:15:43.312Z,53.22
2018-09-16T20:18:09.268Z,53.37
2018-09-16T20:20:35.231Z,52.68
2018-09-16T20:23:01.246Z,53.51
2018-09-16T20:25:27.323Z,52.65
2018-09-16T20:27:53.268Z,53.27
2018-09-16T20:30:19.223Z,52.95
2018-09-16T20:32:45.178Z,52.56
2018-09-16T20:35:11.136Z,52.83
2018-09-16T20:37:37.141Z,52.84
2018-09-16T20:40:03.111Z,53.19
2018-09-16T20:42:29.057Z,52.33
2018-09-16T20:44:55.068Z,52.91
2018-09-16T20:47:21.035Z,52.42
2018-09-16T20:49:46.993Z,53.15
2018-09-16T20:52:13.026Z,52.84
2018-09-16T20:54:39.002Z,52.78
2018-09-16T20:57:04.964Z,52.94
2018-09-16T20:59:30.936Z,53.02
2018-09-16T21:01:56.916Z,52.82
2018-09-16T21:04:22.865Z,53.21
2018-09-16T21:06:48.888Z,53.35
2018-09-16T21:09:14.844Z,52.59
2018-09-16T21:11:40.809Z,52.29
2018-09-16T21:14:06.788Z,53.02
2018-09-16T21:16:32.720Z,52.63
2018-09-16T21:18:58.701Z,52.70
2018-09-16T21:21:24.667Z,52.76
2018-09-16T21:23:50.612Z,52.91
2018-09-16T21:26:16.722Z,52.99
2018-09-16T21:28:42.571Z,52.75
2018-09-16T21:31:08.535Z,53.08
2018-09-16T21:33:34.480Z,52.97
2018-09-16T21:36:00.457Z,53.10
2018-09-16T21:38:26.423Z,53.15
2018-09-16T21:40:52.392Z,53.13
2018-09-16T21:43:18.335Z,53.32
2018-09-16T21:45:44.432Z,53.38
2018-09-16T21:48:10.412Z,53.47
2018-09-16T21:50:36.397Z,53.14
2018-09-16T21:53:02.427Z,53.75
2018-09-16T21:55:28.381Z,52.89
2018-09-16T21:57:54.387Z,53.62
2018-09-16T22:00:20.617Z,52.97
2018-09-16T22:02:46.555Z,53.39
2018-09-16T22:05:12.511Z,53.08
2018-09-16T22:07:38.574Z,53.26
2018-09-16T22:10:04.575Z,53.14
2018-09-16T22:12:30.519Z,52.85
2018-09-16T22:14:56.482Z,52.73
2018-09-16T22:17:22.439Z,53.28
2018-09-16T22:19:48.382Z,52.77
2018-09-16T22:22:14.348Z,52.80
2018-09-16T22:24:40.527Z,53.42
2018-09-16T22:27:06.491Z,52.80
2018-09-16T22:29:32.455Z,52.73
2018-09-16T22:31:58.434Z,52.47
2018-09-16T22:34:24.448Z,53.31
2018-09-16T22:36:50.390Z,53.13
2018-09-16T22:39:16.363Z,53.35
2018-09-16T22:41:42.311Z,52.66
2018-09-16T22:44:08.277Z,53.25
2018-09-16T22:46:34.240Z,53.31
2018-09-16T22:49:00.315Z,52.90
2018-09-16T22:51:26.263Z,52.92
2018-09-16T22:53:52.220Z,52.94
2018-09-16T22:56:18.160Z,53.73
2018-09-16T22:58:44.192Z,52.93
2018-09-16T23:01:10.109Z,53.40
2018-09-16T23:03:36.327Z,52.70
2018-09-16T23:06:02.410Z,53.01
2018-09-16T23:08:28.353Z,52.68
2018-09-16T23:10:54.318Z,53.11
2018-09-16T23:13:20.264Z,52.70
2018-09-16T23:15:46.215Z,53.35
2018-09-16T23:18:12.193Z,53.27
2018-09-16T23:20:38.151Z,52.97
2018-09-16T23:23:04.095Z,53.19
2018-09-16T23:25:30.084Z,52.47
2018-09-16T23:27:56.123Z,53.07
2018-09-16T23:30:22.044Z,53.59
2018-09-16T23:32:47.989Z,52.97
2018-09-16T23:35:13.984Z,52.98
2018-09-16T23:37:39.927Z,53.06
2018-09-16T23:40:05.902Z,53.44
2018-09-16T23:42:31.849Z,53.26
2018-09-16T23:44:57.792Z,52.95
2018-09-16T23:47:23.766Z,53.10
2018-09-16T23:49:49.726Z,53.45
2018-09-16T23:52:15.678Z,53.35
2018-09-16T23:54:41.622Z,52.94
2018-09-16T23:57:07.564Z,52.96
2018-09-16T23:59:33.523Z,53.33
